sensor_id;sensor_type;location;lat;lon;timestamp;P1;P4;P2;P0;N10;N4;N25;N1;N05;TS
60227;SPS30;46091;46.512;6.626;2023-07-31T00:02:03;3.00;;2.00;;;;;;;
60227;SPS30;46091;46.512;6.626;2023-07-31T00:04:06;3.00;;2.00;;;;;;;
60227;SPS30;46091;46.512;6.626;2023-07-31T00:06:09;4.00;;3.00;;;;;;;
60227;SPS30;46091;46.512;6.626;2023-07-31T00:08:12;5.00;;4.00;;;;;;;
60227;SPS30;46091;46.512;6.626;2023-07-31T00:10:16;6.67;;5.67;;;;;;;
60227;SPS30;46091;46.512;6.626;2023-07-31T00:12:19;3.50;;2.50;;;;;;;
60227;SPS30;46091;46.512;6.626;2023-07-31T00:14:22;4.00;;3.00;;;;;;;
60227;SPS30;46091;46.512;6.626;2023-07-31T00:16:25;3.00;;2.00;;;;;;;
60227;SPS30;46091;46.512;6.626;2023-07-31T00:18:28;5.00;;4.00;;;;;;;
60227;SPS30;46091;46.512;6.626;2023-07-31T00:20:31;4.25;;3.25;;;;;;;
60227;SPS30;46091;46.512;6.626;2023-07-31T00:22:35;3.25;;2.25;;;;;;;
60227;SPS30;46091;46.512;6.626;2023-07-31T00:24:38;4.00;;3.00;;;;;;;
60227;SPS30;46091;46.512;6.626;2023-07-31T00:26:43;3.00;;2.00;;;;;;;
60227;SPS30;46091;46.512;6.626;2023-07-31T00:28:45;3.00;;2.00;;;;;;;
60227;SPS30;46091;46.512;6.626;2023-07-31T00:30:48;3.00;;2.00;;;;;;;
60227;SPS30;46091;46.512;6.626;2023-07-31T00:32:51;3.00;;2.00;;;;;;;
60227;SPS30;46091;46.512;6.626;2023-07-31T00:34:54;2.33;;1.33;;;;;;;
60227;SPS30;46091;46.512;6.626;2023-07-31T00:36:57;3.25;;2.25;;;;;;;
60227;SPS30;46091;46.512;6.626;2023-07-31T00:39:00;3.50;;2.50;;;;;;;
60227;SPS30;46091;46.512;6.626;2023-07-31T00:41:03;4.00;;3.00;;;;;;;
60227;SPS30;46091;46.512;6.626;2023-07-31T00:43:07;3.00;;2.00;;;;;;;
60227;SPS30;46091;46.512;6.626;2023-07-31T00:45:10;4.50;;3.50;;;;;;;
60227;SPS30;46091;46.512;6.626;2023-07-31T00:47:12;5.00;;4.00;;;;;;;
60227;SPS30;46091;46.512;6.626;2023-07-31T00:49:14;5.00;;4.00;;;;;;;
60227;SPS30;46091;46.512;6.626;2023-07-31T00:51:18;4.00;;3.00;;;;;;;
60227;SPS30;46091;46.512;6.626;2023-07-31T00:53:21;3.50;;2.50;;;;;;;
60227;SPS30;46091;46.512;6.626;2023-07-31T00:55:24;3.00;;2.00;;;;;;;
60227;SPS30;46091;46.512;6.626;2023-07-31T00:57:27;2.50;;1.50;;;;;;;
60227;SPS30;46091;46.512;6.626;2023-07-31T00:59:31;3.00;;2.00;;;;;;;
60227;SPS30;46091;46.512;6.626;2023-07-31T01:01:33;2.00;;1.00;;;;;;;
60227;SPS30;46091;46.512;6.626;2023-07-31T01:03:36;3.00;;2.00;;;;;;;
60227;SPS30;46091;46.512;6.626;2023-07-31T01:05:43;3.00;;2.00;;;;;;;
60227;SPS30;46091;46.512;6.626;2023-07-31T01:07:59;3.00;;2.00;;;;;;;
60227;SPS30;46091;46.512;6.626;2023-07-31T01:10:09;3.50;;2.50;;;;;;;
60227;SPS30;46091;46.512;6.626;2023-07-31T01:12:18;6.25;;5.25;;;;;;;
60227;SPS30;46091;46.512;6.626;2023-07-31T01:14:23;4.00;;3.00;;;;;;;
60227;SPS30;46091;46.512;6.626;2023-07-31T01:16:27;3.00;;2.00;;;;;;;
60227;SPS30;46091;46.512;6.626;2023-07-31T01:18:30;3.00;;2.00;;;;;;;
60227;SPS30;46091;46.512;6.626;2023-07-31T01:20:33;4.00;;3.00;;;;;;;
60227;SPS30;46091;46.512;6.626;2023-07-31T01:22:44;3.00;;2.00;;;;;;;
60227;SPS30;46091;46.512;6.626;2023-07-31T01:25:06;3.00;;2.00;;;;;;;
60227;SPS30;46091;46.512;6.626;2023-07-31T01:27:25;2.00;;1.00;;;;;;;
60227;SPS30;46091;46.512;6.626;2023-07-31T01:29:34;4.00;;3.00;;;;;;;
60227;SPS30;46091;46.512;6.626;2023-07-31T01:31:41;4.50;;3.50;;;;;;;
60227;SPS30;46091;46.512;6.626;2023-07-31T01:33:49;5.00;;4.00;;;;;;;
60227;SPS30;46091;46.512;6.626;2023-07-31T01:35:55;4.00;;3.00;;;;;;;
60227;SPS30;46091;46.512;6.626;2023-07-31T01:37:59;4.00;;3.00;;;;;;;
60227;SPS30;46091;46.512;6.626;2023-07-31T01:40:02;3.00;;2.00;;;;;;;
60227;SPS30;46091;46.512;6.626;2023-07-31T01:42:07;3.75;;2.75;;;;;;;
60227;SPS30;46091;46.512;6.626;2023-07-31T01:44:12;4.00;;3.00;;;;;;;
60227;SPS30;46091;46.512;6.626;2023-07-31T01:46:14;4.00;;3.00;;;;;;;
60227;SPS30;46091;46.512;6.626;2023-07-31T01:48:17;3.75;;2.75;;;;;;;
60227;SPS30;46091;46.512;6.626;2023-07-31T01:50:20;3.75;;2.75;;;;;;;
60227;SPS30;46091;46.512;6.626;2023-07-31T01:52:23;3.00;;2.00;;;;;;;
60227;SPS30;46091;46.512;6.626;2023-07-31T01:54:26;2.50;;1.50;;;;;;;
60227;SPS30;46091;46.512;6.626;2023-07-31T01:56:29;2.50;;1.50;;;;;;;
60227;SPS30;46091;46.512;6.626;2023-07-31T01:58:32;2.75;;1.75;;;;;;;
60227;SPS30;46091;46.512;6.626;2023-07-31T02:00:54;4.00;;3.00;;;;;;;
60227;SPS30;46091;46.512;6.626;2023-07-31T02:02:57;3.00;;2.00;;;;;;;
60227;SPS30;46091;46.512;6.626;2023-07-31T02:05:02;3.00;;2.00;;;;;;;
60227;SPS30;46091;46.512;6.626;2023-07-31T02:07:04;3.00;;2.00;;;;;;;
60227;SPS30;46091;46.512;6.626;2023-07-31T02:09:07;3.75;;2.75;;;;;;;
60227;SPS30;46091;46.512;6.626;2023-07-31T02:11:10;4.75;;3.75;;;;;;;
60227;SPS30;46091;46.512;6.626;2023-07-31T02:13:12;4.00;;3.00;;;;;;;
60227;SPS30;46091;46.512;6.626;2023-07-31T02:15:15;4.75;;3.75;;;;;;;
60227;SPS30;46091;46.512;6.626;2023-07-31T02:17:20;5.33;;4.33;;;;;;;
60227;SPS30;46091;46.512;6.626;2023-07-31T02:19:23;3.00;;2.00;;;;;;;
60227;SPS30;46091;46.512;6.626;2023-07-31T02:21:25;3.25;;2.25;;;;;;;
60227;SPS30;46091;46.512;6.626;2023-07-31T02:23:27;4.25;;3.25;;;;;;;
60227;SPS30;46091;46.512;6.626;2023-07-31T02:25:30;4.50;;3.50;;;;;;;
60227;SPS30;46091;46.512;6.626;2023-07-31T02:27:33;3.00;;2.00;;;;;;;
60227;SPS30;46091;46.512;6.626;2023-07-31T02:29:36;3.00;;2.00;;;;;;;
60227;SPS30;46091;46.512;6.626;2023-07-31T02:31:39;3.00;;2.00;;;;;;;
60227;SPS30;46091;46.512;6.626;2023-07-31T02:33:43;4.00;;3.00;;;;;;;
60227;SPS30;46091;46.512;6.626;2023-07-31T02:35:46;3.00;;2.00;;;;;;;
60227;SPS30;46091;46.512;6.626;2023-07-31T02:37:49;4.00;;3.00;;;;;;;
60227;SPS30;46091;46.512;6.626;2023-07-31T02:39:52;2.75;;1.75;;;;;;;
60227;SPS30;46091;46.512;6.626;2023-07-31T02:41:55;3.00;;2.00;;;;;;;
60227;SPS30;46091;46.512;6.626;2023-07-31T02:43:58;2.00;;1.00;;;;;;;
60227;SPS30;46091;46.512;6.626;2023-07-31T02:46:01;4.00;;3.00;;;;;;;
60227;SPS30;46091;46.512;6.626;2023-07-31T02:48:04;4.00;;3.00;;;;;;;
60227;SPS30;46091;46.512;6.626;2023-07-31T02:50:09;3.50;;2.50;;;;;;;
60227;SPS30;46091;46.512;6.626;2023-07-31T02:52:12;5.00;;4.00;;;;;;;
60227;SPS30;46091;46.512;6.626;2023-07-31T02:54:14;3.75;;2.75;;;;;;;
60227;SPS30;46091;46.512;6.626;2023-07-31T02:56:17;4.00;;3.00;;;;;;;
60227;SPS30;46091;46.512;6.626;2023-07-31T02:58:20;7.50;;6.50;;;;;;;
60227;SPS30;46091;46.512;6.626;2023-07-31T03:00:23;6.00;;5.00;;;;;;;
60227;SPS30;46091;46.512;6.626;2023-07-31T03:02:25;5.00;;4.00;;;;;;;
60227;SPS30;46091;46.512;6.626;2023-07-31T03:04:28;4.00;;3.00;;;;;;;
60227;SPS30;46091;46.512;6.626;2023-07-31T03:06:32;3.67;;2.67;;;;;;;
60227;SPS30;46091;46.512;6.626;2023-07-31T03:08:35;3.00;;2.00;;;;;;;
60227;SPS30;46091;46.512;6.626;2023-07-31T03:10:38;3.00;;2.00;;;;;;;
60227;SPS30;46091;46.512;6.626;2023-07-31T03:12:41;4.00;;3.00;;;;;;;
60227;SPS30;46091;46.512;6.626;2023-07-31T03:14:43;4.00;;3.00;;;;;;;
60227;SPS30;46091;46.512;6.626;2023-07-31T03:16:47;3.00;;2.00;;;;;;;
60227;SPS30;46091;46.512;6.626;2023-07-31T03:18:51;3.75;;2.75;;;;;;;
60227;SPS30;46091;46.512;6.626;2023-07-31T03:20:54;4.00;;3.00;;;;;;;
60227;SPS30;46091;46.512;6.626;2023-07-31T03:22:58;4.00;;3.00;;;;;;;
60227;SPS30;46091;46.512;6.626;2023-07-31T03:25:01;3.75;;2.75;;;;;;;
60227;SPS30;46091;46.512;6.626;2023-07-31T03:27:03;7.50;;6.50;;;;;;;
60227;SPS30;46091;46.512;6.626;2023-07-31T03:29:06;8.00;;7.00;;;;;;;
60227;SPS30;46091;46.512;6.626;2023-07-31T03:31:09;8.25;;7.25;;;;;;;
60227;SPS30;46091;46.512;6.626;2023-07-31T03:33:12;9.67;;8.67;;;;;;;
60227;SPS30;46091;46.512;6.626;2023-07-31T03:35:15;10.50;;9.50;;;;;;;
60227;SPS30;46091;46.512;6.626;2023-07-31T03:37:18;7.00;;6.00;;;;;;;
60227;SPS30;46091;46.512;6.626;2023-07-31T03:39:22;8.75;;7.75;;;;;;;
60227;SPS30;46091;46.512;6.626;2023-07-31T03:41:25;7.50;;6.50;;;;;;;
60227;SPS30;46091;46.512;6.626;2023-07-31T03:43:28;7.00;;6.00;;;;;;;
60227;SPS30;46091;46.512;6.626;2023-07-31T03:45:31;6.50;;5.50;;;;;;;
60227;SPS30;46091;46.512;6.626;2023-07-31T03:47:34;3.75;;2.75;;;;;;;
60227;SPS30;46091;46.512;6.626;2023-07-31T03:49:37;5.33;;4.33;;;;;;;
60227;SPS30;46091;46.512;6.626;2023-07-31T03:51:40;5.75;;4.75;;;;;;;
60227;SPS30;46091;46.512;6.626;2023-07-31T03:53:44;7.00;;6.00;;;;;;;
60227;SPS30;46091;46.512;6.626;2023-07-31T03:55:48;7.00;;6.00;;;;;;;
60227;SPS30;46091;46.512;6.626;2023-07-31T03:57:51;6.50;;5.50;;;;;;;
60227;SPS30;46091;46.512;6.626;2023-07-31T03:59:53;6.75;;5.75;;;;;;;
60227;SPS30;46091;46.512;6.626;2023-07-31T04:01:56;7.50;;6.50;;;;;;;
60227;SPS30;46091;46.512;6.626;2023-07-31T04:03:59;6.75;;5.75;;;;;;;
60227;SPS30;46091;46.512;6.626;2023-07-31T04:06:02;8.00;;7.00;;;;;;;
60227;SPS30;46091;46.512;6.626;2023-07-31T04:08:05;9.75;;8.75;;;;;;;
60227;SPS30;46091;46.512;6.626;2023-07-31T04:10:08;8.00;;7.00;;;;;;;
60227;SPS30;46091;46.512;6.626;2023-07-31T04:12:15;9.00;;8.00;;;;;;;
60227;SPS30;46091;46.512;6.626;2023-07-31T04:14:18;3.75;;2.75;;;;;;;
60227;SPS30;46091;46.512;6.626;2023-07-31T04:16:21;7.33;;6.33;;;;;;;
60227;SPS30;46091;46.512;6.626;2023-07-31T04:18:24;8.00;;7.00;;;;;;;
60227;SPS30;46091;46.512;6.626;2023-07-31T04:20:27;8.75;;7.75;;;;;;;
60227;SPS30;46091;46.512;6.626;2023-07-31T04:22:30;7.00;;6.00;;;;;;;
60227;SPS30;46091;46.512;6.626;2023-07-31T04:24:33;8.50;;7.50;;;;;;;
60227;SPS30;46091;46.512;6.626;2023-07-31T04:26:36;7.00;;6.00;;;;;;;
60227;SPS30;46091;46.512;6.626;2023-07-31T04:28:41;3.00;;2.00;;;;;;;
60227;SPS30;46091;46.512;6.626;2023-07-31T04:30:44;2.25;;1.25;;;;;;;
60227;SPS30;46091;46.512;6.626;2023-07-31T04:32:51;3.00;;2.00;;;;;;;
60227;SPS30;46091;46.512;6.626;2023-07-31T04:34:53;2.75;;1.75;;;;;;;
60227;SPS30;46091;46.512;6.626;2023-07-31T04:36:56;6.00;;5.00;;;;;;;
60227;SPS30;46091;46.512;6.626;2023-07-31T04:38:59;3.25;;2.25;;;;;;;
60227;SPS30;46091;46.512;6.626;2023-07-31T04:41:03;3.50;;2.50;;;;;;;
60227;SPS30;46091;46.512;6.626;2023-07-31T04:43:07;3.00;;2.00;;;;;;;
60227;SPS30;46091;46.512;6.626;2023-07-31T04:45:11;5.00;;4.00;;;;;;;
60227;SPS30;46091;46.512;6.626;2023-07-31T04:47:14;4.00;;3.00;;;;;;;
60227;SPS30;46091;46.512;6.626;2023-07-31T04:49:17;5.50;;4.50;;;;;;;
60227;SPS30;46091;46.512;6.626;2023-07-31T04:51:20;3.00;;2.00;;;;;;;
60227;SPS30;46091;46.512;6.626;2023-07-31T04:53:24;3.50;;2.50;;;;;;;
60227;SPS30;46091;46.512;6.626;2023-07-31T04:55:27;4.00;;3.00;;;;;;;
60227;SPS30;46091;46.512;6.626;2023-07-31T04:57:30;3.00;;2.00;;;;;;;
60227;SPS30;46091;46.512;6.626;2023-07-31T04:59:33;4.00;;3.00;;;;;;;
60227;SPS30;46091;46.512;6.626;2023-07-31T05:01:37;2.50;;1.50;;;;;;;
60227;SPS30;46091;46.512;6.626;2023-07-31T05:03:40;3.00;;2.00;;;;;;;
60227;SPS30;46091;46.512;6.626;2023-07-31T05:05:43;3.00;;2.00;;;;;;;
60227;SPS30;46091;46.512;6.626;2023-07-31T05:07:46;3.00;;2.00;;;;;;;
60227;SPS30;46091;46.512;6.626;2023-07-31T05:09:48;4.75;;3.75;;;;;;;
60227;SPS30;46091;46.512;6.626;2023-07-31T05:11:50;3.00;;2.00;;;;;;;
60227;SPS30;46091;46.512;6.626;2023-07-31T05:13:53;4.00;;3.00;;;;;;;
60227;SPS30;46091;46.512;6.626;2023-07-31T05:15:56;3.25;;2.25;;;;;;;
60227;SPS30;46091;46.512;6.626;2023-07-31T05:18:04;4.00;;3.00;;;;;;;
60227;SPS30;46091;46.512;6.626;2023-07-31T05:20:07;5.00;;4.00;;;;;;;
60227;SPS30;46091;46.512;6.626;2023-07-31T05:22:12;4.00;;3.00;;;;;;;
60227;SPS30;46091;46.512;6.626;2023-07-31T05:24:14;5.50;;4.50;;;;;;;
60227;SPS30;46091;46.512;6.626;2023-07-31T05:26:17;4.00;;3.00;;;;;;;
60227;SPS30;46091;46.512;6.626;2023-07-31T05:28:20;8.25;;7.25;;;;;;;
60227;SPS30;46091;46.512;6.626;2023-07-31T05:30:22;6.00;;5.00;;;;;;;
60227;SPS30;46091;46.512;6.626;2023-07-31T05:32:25;3.00;;2.00;;;;;;;
60227;SPS30;46091;46.512;6.626;2023-07-31T05:34:30;3.00;;2.00;;;;;;;
60227;SPS30;46091;46.512;6.626;2023-07-31T05:36:33;3.00;;2.00;;;;;;;
60227;SPS30;46091;46.512;6.626;2023-07-31T05:38:36;2.75;;1.75;;;;;;;
60227;SPS30;46091;46.512;6.626;2023-07-31T05:40:43;3.00;;2.00;;;;;;;
60227;SPS30;46091;46.512;6.626;2023-07-31T05:42:46;3.25;;2.25;;;;;;;
60227;SPS30;46091;46.512;6.626;2023-07-31T05:44:49;3.00;;2.00;;;;;;;
60227;SPS30;46091;46.512;6.626;2023-07-31T05:46:52;2.50;;1.50;;;;;;;
60227;SPS30;46091;46.512;6.626;2023-07-31T05:48:55;3.75;;2.75;;;;;;;
60227;SPS30;46091;46.512;6.626;2023-07-31T05:50:59;4.00;;3.00;;;;;;;
60227;SPS30;46091;46.512;6.626;2023-07-31T05:53:02;5.00;;4.00;;;;;;;
60227;SPS30;46091;46.512;6.626;2023-07-31T05:55:05;3.00;;2.00;;;;;;;
60227;SPS30;46091;46.512;6.626;2023-07-31T05:57:09;3.25;;2.25;;;;;;;
60227;SPS30;46091;46.512;6.626;2023-07-31T05:59:12;4.00;;3.00;;;;;;;
60227;SPS30;46091;46.512;6.626;2023-07-31T06:01:15;4.00;;3.00;;;;;;;
60227;SPS30;46091;46.512;6.626;2023-07-31T06:03:19;4.75;;3.75;;;;;;;
60227;SPS30;46091;46.512;6.626;2023-07-31T06:05:22;3.75;;2.75;;;;;;;
60227;SPS30;46091;46.512;6.626;2023-07-31T06:07:26;3.00;;2.00;;;;;;;
60227;SPS30;46091;46.512;6.626;2023-07-31T06:09:29;3.00;;2.00;;;;;;;
60227;SPS30;46091;46.512;6.626;2023-07-31T06:11:32;3.00;;2.00;;;;;;;
60227;SPS30;46091;46.512;6.626;2023-07-31T06:13:35;3.75;;2.75;;;;;;;
60227;SPS30;46091;46.512;6.626;2023-07-31T06:15:38;2.50;;1.50;;;;;;;
60227;SPS30;46091;46.512;6.626;2023-07-31T06:17:41;3.75;;2.75;;;;;;;
60227;SPS30;46091;46.512;6.626;2023-07-31T06:19:44;4.50;;3.50;;;;;;;
60227;SPS30;46091;46.512;6.626;2023-07-31T06:21:47;4.00;;3.00;;;;;;;
60227;SPS30;46091;46.512;6.626;2023-07-31T06:23:51;4.00;;3.00;;;;;;;
60227;SPS30;46091;46.512;6.626;2023-07-31T06:25:54;3.00;;2.00;;;;;;;
60227;SPS30;46091;46.512;6.626;2023-07-31T06:27:57;6.25;;5.25;;;;;;;
60227;SPS30;46091;46.512;6.626;2023-07-31T06:30:00;5.00;;4.00;;;;;;;
60227;SPS30;46091;46.512;6.626;2023-07-31T06:32:03;3.75;;2.75;;;;;;;
60227;SPS30;46091;46.512;6.626;2023-07-31T06:34:05;5.00;;4.00;;;;;;;
60227;SPS30;46091;46.512;6.626;2023-07-31T06:36:08;9.00;;8.00;;;;;;;
60227;SPS30;46091;46.512;6.626;2023-07-31T06:38:11;6.00;;5.00;;;;;;;
60227;SPS30;46091;46.512;6.626;2023-07-31T06:40:14;5.00;;4.00;;;;;;;
60227;SPS30;46091;46.512;6.626;2023-07-31T06:42:18;4.00;;3.00;;;;;;;
60227;SPS30;46091;46.512;6.626;2023-07-31T06:44:19;4.25;;3.25;;;;;;;
60227;SPS30;46091;46.512;6.626;2023-07-31T06:46:23;3.25;;2.25;;;;;;;
60227;SPS30;46091;46.512;6.626;2023-07-31T06:48:25;3.00;;2.00;;;;;;;
60227;SPS30;46091;46.512;6.626;2023-07-31T06:50:28;3.00;;2.00;;;;;;;
60227;SPS30;46091;46.512;6.626;2023-07-31T06:52:31;4.00;;3.00;;;;;;;
60227;SPS30;46091;46.512;6.626;2023-07-31T06:54:34;4.25;;3.25;;;;;;;
60227;SPS30;46091;46.512;6.626;2023-07-31T06:56:38;3.00;;2.00;;;;;;;
60227;SPS30;46091;46.512;6.626;2023-07-31T06:58:42;3.00;;2.00;;;;;;;
60227;SPS30;46091;46.512;6.626;2023-07-31T07:00:45;3.00;;2.00;;;;;;;
60227;SPS30;46091;46.512;6.626;2023-07-31T07:02:48;3.25;;2.25;;;;;;;
60227;SPS30;46091;46.512;6.626;2023-07-31T07:04:51;3.00;;2.00;;;;;;;
60227;SPS30;46091;46.512;6.626;2023-07-31T07:06:54;4.00;;3.00;;;;;;;
60227;SPS30;46091;46.512;6.626;2023-07-31T07:08:57;3.00;;2.00;;;;;;;
60227;SPS30;46091;46.512;6.626;2023-07-31T07:11:00;4.00;;3.00;;;;;;;
60227;SPS30;46091;46.512;6.626;2023-07-31T07:13:04;4.00;;3.00;;;;;;;
60227;SPS30;46091;46.512;6.626;2023-07-31T07:15:07;5.50;;4.50;;;;;;;
60227;SPS30;46091;46.512;6.626;2023-07-31T07:17:11;5.25;;4.25;;;;;;;
60227;SPS30;46091;46.512;6.626;2023-07-31T07:19:32;4.00;;3.00;;;;;;;
60227;SPS30;46091;46.512;6.626;2023-07-31T07:21:35;3.00;;2.00;;;;;;;
60227;SPS30;46091;46.512;6.626;2023-07-31T07:23:37;4.33;;3.33;;;;;;;
60227;SPS30;46091;46.512;6.626;2023-07-31T07:25:40;3.00;;2.00;;;;;;;
60227;SPS30;46091;46.512;6.626;2023-07-31T07:28:01;3.50;;2.50;;;;;;;
60227;SPS30;46091;46.512;6.626;2023-07-31T07:30:23;3.75;;2.75;;;;;;;
60227;SPS30;46091;46.512;6.626;2023-07-31T07:32:26;4.00;;3.00;;;;;;;
60227;SPS30;46091;46.512;6.626;2023-07-31T07:34:28;4.00;;3.00;;;;;;;
60227;SPS30;46091;46.512;6.626;2023-07-31T07:36:31;3.00;;2.00;;;;;;;
60227;SPS30;46091;46.512;6.626;2023-07-31T07:38:35;3.00;;2.00;;;;;;;
60227;SPS30;46091;46.512;6.626;2023-07-31T07:40:38;3.67;;2.67;;;;;;;
60227;SPS30;46091;46.512;6.626;2023-07-31T07:42:42;4.00;;3.00;;;;;;;
60227;SPS30;46091;46.512;6.626;2023-07-31T07:44:43;4.25;;3.25;;;;;;;
60227;SPS30;46091;46.512;6.626;2023-07-31T07:46:48;4.00;;3.00;;;;;;;
60227;SPS30;46091;46.512;6.626;2023-07-31T07:48:50;3.25;;2.25;;;;;;;
60227;SPS30;46091;46.512;6.626;2023-07-31T07:50:53;3.00;;2.00;;;;;;;
60227;SPS30;46091;46.512;6.626;2023-07-31T07:52:56;3.00;;2.00;;;;;;;
60227;SPS30;46091;46.512;6.626;2023-07-31T07:54:59;3.00;;2.00;;;;;;;
60227;SPS30;46091;46.512;6.626;2023-07-31T07:57:02;3.00;;2.00;;;;;;;
60227;SPS30;46091;46.512;6.626;2023-07-31T07:59:06;4.00;;3.00;;;;;;;
60227;SPS30;46091;46.512;6.626;2023-07-31T08:01:08;4.00;;3.00;;;;;;;
60227;SPS30;46091;46.512;6.626;2023-07-31T08:03:13;4.00;;3.00;;;;;;;
60227;SPS30;46091;46.512;6.626;2023-07-31T08:05:16;5.00;;4.00;;;;;;;
60227;SPS30;46091;46.512;6.626;2023-07-31T08:07:19;3.00;;2.00;;;;;;;
60227;SPS30;46091;46.512;6.626;2023-07-31T08:09:22;3.00;;2.00;;;;;;;
60227;SPS30;46091;46.512;6.626;2023-07-31T08:11:25;6.25;;5.25;;;;;;;
60227;SPS30;46091;46.512;6.626;2023-07-31T08:13:28;3.00;;2.00;;;;;;;
60227;SPS30;46091;46.512;6.626;2023-07-31T08:15:31;3.00;;2.00;;;;;;;
60227;SPS30;46091;46.512;6.626;2023-07-31T08:17:33;8.50;;7.50;;;;;;;
60227;SPS30;46091;46.512;6.626;2023-07-31T08:19:38;11.00;;10.00;;;;;;;
60227;SPS30;46091;46.512;6.626;2023-07-31T08:21:41;11.25;;10.25;;;;;;;
60227;SPS30;46091;46.512;6.626;2023-07-31T08:23:44;3.00;;2.00;;;;;;;
60227;SPS30;46091;46.512;6.626;2023-07-31T08:25:46;6.67;;5.67;;;;;;;
60227;SPS30;46091;46.512;6.626;2023-07-31T08:27:51;2.75;;1.75;;;;;;;
60227;SPS30;46091;46.512;6.626;2023-07-31T08:29:54;10.50;;9.50;;;;;;;
60227;SPS30;46091;46.512;6.626;2023-07-31T08:31:57;9.25;;8.25;;;;;;;
60227;SPS30;46091;46.512;6.626;2023-07-31T08:33:59;4.25;;3.25;;;;;;;
60227;SPS30;46091;46.512;6.626;2023-07-31T08:36:04;6.25;;5.25;;;;;;;
60227;SPS30;46091;46.512;6.626;2023-07-31T08:38:07;4.00;;3.00;;;;;;;
60227;SPS30;46091;46.512;6.626;2023-07-31T08:40:10;5.00;;4.00;;;;;;;
60227;SPS30;46091;46.512;6.626;2023-07-31T08:42:14;4.25;;3.25;;;;;;;
60227;SPS30;46091;46.512;6.626;2023-07-31T08:44:17;12.25;;11.25;;;;;;;
60227;SPS30;46091;46.512;6.626;2023-07-31T08:46:21;4.50;;3.50;;;;;;;
60227;SPS30;46091;46.512;6.626;2023-07-31T08:48:25;7.50;;6.50;;;;;;;
60227;SPS30;46091;46.512;6.626;2023-07-31T08:50:30;3.50;;2.50;;;;;;;
60227;SPS30;46091;46.512;6.626;2023-07-31T08:52:34;4.00;;3.00;;;;;;;
60227;SPS30;46091;46.512;6.626;2023-07-31T08:54:37;3.00;;2.00;;;;;;;
60227;SPS30;46091;46.512;6.626;2023-07-31T08:56:41;7.00;;6.00;;;;;;;
60227;SPS30;46091;46.512;6.626;2023-07-31T08:58:45;5.00;;4.00;;;;;;;
60227;SPS30;46091;46.512;6.626;2023-07-31T09:00:49;4.00;;3.00;;;;;;;
60227;SPS30;46091;46.512;6.626;2023-07-31T09:02:56;4.00;;3.00;;;;;;;
60227;SPS30;46091;46.512;6.626;2023-07-31T09:05:03;7.25;;6.25;;;;;;;
60227;SPS30;46091;46.512;6.626;2023-07-31T09:07:07;5.67;;4.67;;;;;;;
60227;SPS30;46091;46.512;6.626;2023-07-31T09:09:16;7.75;;6.75;;;;;;;
60227;SPS30;46091;46.512;6.626;2023-07-31T09:11:19;11.00;;10.00;;;;;;;
60227;SPS30;46091;46.512;6.626;2023-07-31T09:13:24;6.00;;5.00;;;;;;;
60227;SPS30;46091;46.512;6.626;2023-07-31T09:15:27;9.25;;8.25;;;;;;;
60227;SPS30;46091;46.512;6.626;2023-07-31T09:17:38;6.00;;5.00;;;;;;;
60227;SPS30;46091;46.512;6.626;2023-07-31T09:19:42;6.75;;5.75;;;;;;;
60227;SPS30;46091;46.512;6.626;2023-07-31T09:21:47;5.00;;4.00;;;;;;;
60227;SPS30;46091;46.512;6.626;2023-07-31T09:23:51;7.75;;6.75;;;;;;;
60227;SPS30;46091;46.512;6.626;2023-07-31T09:25:57;8.00;;7.00;;;;;;;
60227;SPS30;46091;46.512;6.626;2023-07-31T09:28:02;9.50;;8.50;;;;;;;
60227;SPS30;46091;46.512;6.626;2023-07-31T09:30:07;9.75;;8.75;;;;;;;
60227;SPS30;46091;46.512;6.626;2023-07-31T09:32:15;14.50;;13.50;;;;;;;
60227;SPS30;46091;46.512;6.626;2023-07-31T09:34:19;13.25;;12.25;;;;;;;
60227;SPS30;46091;46.512;6.626;2023-07-31T09:36:23;5.50;;4.50;;;;;;;
60227;SPS30;46091;46.512;6.626;2023-07-31T09:38:25;5.00;;4.00;;;;;;;
60227;SPS30;46091;46.512;6.626;2023-07-31T09:40:29;4.50;;3.50;;;;;;;
60227;SPS30;46091;46.512;6.626;2023-07-31T09:42:34;3.75;;2.75;;;;;;;
60227;SPS30;46091;46.512;6.626;2023-07-31T09:44:37;4.25;;3.25;;;;;;;
60227;SPS30;46091;46.512;6.626;2023-07-31T09:46:42;3.75;;2.75;;;;;;;
60227;SPS30;46091;46.512;6.626;2023-07-31T09:48:45;4.00;;3.00;;;;;;;
60227;SPS30;46091;46.512;6.626;2023-07-31T09:50:48;7.00;;6.00;;;;;;;
60227;SPS30;46091;46.512;6.626;2023-07-31T09:52:51;5.75;;4.75;;;;;;;
60227;SPS30;46091;46.512;6.626;2023-07-31T09:54:53;6.00;;5.00;;;;;;;
60227;SPS30;46091;46.512;6.626;2023-07-31T09:56:56;3.75;;2.75;;;;;;;
60227;SPS30;46091;46.512;6.626;2023-07-31T09:59:03;3.00;;2.00;;;;;;;
60227;SPS30;46091;46.512;6.626;2023-07-31T10:01:07;5.00;;4.00;;;;;;;
60227;SPS30;46091;46.512;6.626;2023-07-31T10:03:11;7.50;;6.50;;;;;;;
60227;SPS30;46091;46.512;6.626;2023-07-31T10:05:14;10.50;;9.50;;;;;;;
60227;SPS30;46091;46.512;6.626;2023-07-31T10:07:18;16.00;;15.00;;;;;;;
60227;SPS30;46091;46.512;6.626;2023-07-31T10:09:21;10.67;;9.67;;;;;;;
60227;SPS30;46091;46.512;6.626;2023-07-31T10:11:28;14.50;;13.50;;;;;;;
60227;SPS30;46091;46.512;6.626;2023-07-31T10:13:36;4.00;;3.00;;;;;;;
60227;SPS30;46091;46.512;6.626;2023-07-31T10:15:41;4.00;;3.00;;;;;;;
60227;SPS30;46091;46.512;6.626;2023-07-31T10:17:46;7.00;;6.00;;;;;;;
60227;SPS30;46091;46.512;6.626;2023-07-31T10:19:49;4.00;;3.00;;;;;;;
60227;SPS30;46091;46.512;6.626;2023-07-31T10:21:52;10.00;;9.00;;;;;;;
60227;SPS30;46091;46.512;6.626;2023-07-31T10:23:57;13.50;;12.50;;;;;;;
60227;SPS30;46091;46.512;6.626;2023-07-31T10:26:01;11.50;;10.50;;;;;;;
60227;SPS30;46091;46.512;6.626;2023-07-31T10:28:07;9.00;;8.00;;;;;;;
60227;SPS30;46091;46.512;6.626;2023-07-31T10:32:22;5.50;;4.50;;;;;;;
60227;SPS30;46091;46.512;6.626;2023-07-31T10:34:26;4.00;;3.00;;;;;;;
60227;SPS30;46091;46.512;6.626;2023-07-31T10:36:29;6.00;;5.00;;;;;;;
60227;SPS30;46091;46.512;6.626;2023-07-31T10:38:32;5.75;;4.75;;;;;;;
60227;SPS30;46091;46.512;6.626;2023-07-31T10:40:34;5.25;;4.25;;;;;;;
60227;SPS30;46091;46.512;6.626;2023-07-31T10:42:38;3.25;;2.25;;;;;;;
60227;SPS30;46091;46.512;6.626;2023-07-31T10:44:48;3.00;;2.00;;;;;;;
60227;SPS30;46091;46.512;6.626;2023-07-31T10:46:54;8.00;;7.00;;;;;;;
60227;SPS30;46091;46.512;6.626;2023-07-31T10:49:00;5.00;;4.00;;;;;;;
60227;SPS30;46091;46.512;6.626;2023-07-31T10:51:06;3.33;;2.33;;;;;;;
60227;SPS30;46091;46.512;6.626;2023-07-31T10:53:11;6.25;;5.25;;;;;;;
60227;SPS30;46091;46.512;6.626;2023-07-31T10:55:26;6.00;;5.00;;;;;;;
60227;SPS30;46091;46.512;6.626;2023-07-31T10:57:31;4.50;;3.50;;;;;;;
60227;SPS30;46091;46.512;6.626;2023-07-31T10:59:36;2.00;;1.00;;;;;;;
60227;SPS30;46091;46.512;6.626;2023-07-31T11:01:51;2.00;;1.00;;;;;;;
60227;SPS30;46091;46.512;6.626;2023-07-31T11:03:56;3.00;;2.00;;;;;;;
60227;SPS30;46091;46.512;6.626;2023-07-31T11:06:01;2.75;;1.75;;;;;;;
60227;SPS30;46091;46.512;6.626;2023-07-31T11:08:09;2.75;;1.75;;;;;;;
60227;SPS30;46091;46.512;6.626;2023-07-31T11:10:15;7.00;;6.00;;;;;;;
60227;SPS30;46091;46.512;6.626;2023-07-31T11:12:19;6.33;;5.33;;;;;;;
60227;SPS30;46091;46.512;6.626;2023-07-31T11:14:23;4.25;;3.25;;;;;;;
60227;SPS30;46091;46.512;6.626;2023-07-31T11:16:26;4.00;;3.00;;;;;;;
60227;SPS30;46091;46.512;6.626;2023-07-31T11:18:29;5.00;;4.00;;;;;;;
60227;SPS30;46091;46.512;6.626;2023-07-31T11:20:32;7.75;;6.75;;;;;;;
60227;SPS30;46091;46.512;6.626;2023-07-31T11:22:36;8.50;;7.50;;;;;;;
60227;SPS30;46091;46.512;6.626;2023-07-31T11:24:39;8.75;;7.75;;;;;;;
60227;SPS30;46091;46.512;6.626;2023-07-31T11:26:47;10.50;;9.50;;;;;;;
60227;SPS30;46091;46.512;6.626;2023-07-31T11:28:51;8.75;;7.75;;;;;;;
60227;SPS30;46091;46.512;6.626;2023-07-31T11:30:55;8.00;;7.00;;;;;;;
60227;SPS30;46091;46.512;6.626;2023-07-31T11:32:59;9.00;;8.00;;;;;;;
60227;SPS30;46091;46.512;6.626;2023-07-31T11:35:04;7.00;;6.00;;;;;;;
60227;SPS30;46091;46.512;6.626;2023-07-31T11:37:09;6.25;;5.25;;;;;;;
60227;SPS30;46091;46.512;6.626;2023-07-31T11:39:13;9.25;;8.25;;;;;;;
60227;SPS30;46091;46.512;6.626;2023-07-31T11:41:17;6.50;;5.50;;;;;;;
60227;SPS30;46091;46.512;6.626;2023-07-31T11:43:20;7.00;;6.00;;;;;;;
60227;SPS30;46091;46.512;6.626;2023-07-31T11:45:24;4.00;;3.00;;;;;;;
60227;SPS30;46091;46.512;6.626;2023-07-31T11:47:28;14.50;;13.50;;;;;;;
60227;SPS30;46091;46.512;6.626;2023-07-31T11:49:33;10.50;;9.50;;;;;;;
60227;SPS30;46091;46.512;6.626;2023-07-31T11:51:39;5.00;;4.00;;;;;;;
60227;SPS30;46091;46.512;6.626;2023-07-31T11:53:43;5.50;;4.50;;;;;;;
60227;SPS30;46091;46.512;6.626;2023-07-31T11:55:49;8.50;;7.50;;;;;;;
60227;SPS30;46091;46.512;6.626;2023-07-31T11:57:52;6.00;;5.00;;;;;;;